sensor_id;sensor_type;location;lat;lon;timestamp;P1;durP1;ratioP1;P2;durP2;ratioP2
36833;SDS011;48003;52.084;5.224;2024-02-26T00:02:31;5.3;;;3.0;;
36833;SDS011;48003;52.084;5.224;2024-02-26T00:04:07;4.3;;;2.8;;
36833;SDS011;48003;52.084;5.224;2024-02-26T00:05:45;3.8;;;2.9;;
36833;SDS011;48003;52.084;5.224;2024-02-26T00:07:21;4.61;;;3.0;;
36833;SDS011;48003;52.084;5.224;2024-02-26T00:10:34;6.4;;;3.3;;
36833;SDS011;48003;52.084;5.224;2024-02-26T00:12:10;5.11;;;3.0;;
36833;SDS011;48003;52.084;5.224;2024-02-26T00:13:49;6.0;;;3.0;;
36833;SDS011;48003;52.084;5.224;2024-02-26T00:17:02;5.0;;;3.1;;
36833;SDS011;48003;52.084;5.224;2024-02-26T00:18:39;7.0;;;3.2;;
36833;SDS011;48003;52.084;5.224;2024-02-26T00:20:15;4.7;;;3.0;;
36833;SDS011;48003;52.084;5.224;2024-02-26T00:23:28;5.2;;;2.8;;
36833;SDS011;48003;52.084;5.224;2024-02-26T00:25:05;4.2;;;3.0;;
36833;SDS011;48003;52.084;5.224;2024-02-26T00:26:41;5.4;;;2.9;;
36833;SDS011;48003;52.084;5.224;2024-02-26T00:28:19;5.4;;;3.2;;
36833;SDS011;48003;52.084;5.224;2024-02-26T00:31:33;6.6;;;3.1;;
36833;SDS011;48003;52.084;5.224;2024-02-26T00:33:10;5.2;;;3.1;;
36833;SDS011;48003;52.084;5.224;2024-02-26T00:34:46;5.7;;;3.3;;
36833;SDS011;48003;52.084;5.224;2024-02-26T00:37:58;6.1;;;3.2;;
36833;SDS011;48003;52.084;5.224;2024-02-26T00:39:35;4.8;;;3.3;;
36833;SDS011;48003;52.084;5.224;2024-02-26T00:41:11;5.2;;;3.0;;
36833;SDS011;48003;52.084;5.224;2024-02-26T00:44:23;7.1;;;3.1;;
36833;SDS011;48003;52.084;5.224;2024-02-26T00:46:01;6.1;;;3.2;;
36833;SDS011;48003;52.084;5.224;2024-02-26T00:47:37;3.7;;;3.0;;
36833;SDS011;48003;52.084;5.224;2024-02-26T00:49:13;6.1;;;3.1;;
36833;SDS011;48003;52.084;5.224;2024-02-26T00:52:25;6.8;;;3.3;;
36833;SDS011;48003;52.084;5.224;2024-02-26T00:54:01;5.11;;;3.2;;
36833;SDS011;48003;52.084;5.224;2024-02-26T00:55:38;5.6;;;3.5;;
36833;SDS011;48003;52.084;5.224;2024-02-26T00:58:50;5.0;;;3.5;;
36833;SDS011;48003;52.084;5.224;2024-02-26T01:00:26;4.91;;;3.5;;
36833;SDS011;48003;52.084;5.224;2024-02-26T01:02:03;6.4;;;3.4;;
36833;SDS011;48003;52.084;5.224;2024-02-26T01:05:15;4.8;;;3.4;;
36833;SDS011;48003;52.084;5.224;2024-02-26T01:06:51;4.8;;;3.4;;
36833;SDS011;48003;52.084;5.224;2024-02-26T01:08:27;6.3;;;3.3;;
36833;SDS011;48003;52.084;5.224;2024-02-26T01:11:45;6.6;;;3.4;;
36833;SDS011;48003;52.084;5.224;2024-02-26T01:13:21;5.4;;;3.7;;
36833;SDS011;48003;52.084;5.224;2024-02-26T01:14:57;4.61;;;3.8;;
36833;SDS011;48003;52.084;5.224;2024-02-26T01:16:33;6.6;;;3.9;;
36833;SDS011;48003;52.084;5.224;2024-02-26T01:19:47;5.11;;;3.6;;
36833;SDS011;48003;52.084;5.224;2024-02-26T01:21:24;5.11;;;3.8;;
36833;SDS011;48003;52.084;5.224;2024-02-26T01:23:01;5.2;;;3.5;;
36833;SDS011;48003;52.084;5.224;2024-02-26T01:26:13;4.91;;;3.7;;
36833;SDS011;48003;52.084;5.224;2024-02-26T01:27:49;5.4;;;3.8;;
36833;SDS011;48003;52.084;5.224;2024-02-26T01:29:26;6.7;;;3.7;;
36833;SDS011;48003;52.084;5.224;2024-02-26T01:31:02;4.91;;;3.7;;
36833;SDS011;48003;52.084;5.224;2024-02-26T01:34:16;5.11;;;4.1;;
36833;SDS011;48003;52.084;5.224;2024-02-26T01:35:52;5.2;;;3.9;;
36833;SDS011;48003;52.084;5.224;2024-02-26T01:37:29;5.2;;;3.6;;
36833;SDS011;48003;52.084;5.224;2024-02-26T01:40:41;6.1;;;4.1;;
36833;SDS011;48003;52.084;5.224;2024-02-26T01:42:17;7.2;;;3.9;;
36833;SDS011;48003;52.084;5.224;2024-02-26T01:43:56;6.3;;;4.3;;
36833;SDS011;48003;52.084;5.224;2024-02-26T01:47:10;5.8;;;3.7;;
36833;SDS011;48003;52.084;5.224;2024-02-26T01:48:47;6.1;;;4.0;;
36833;SDS011;48003;52.084;5.224;2024-02-26T01:50:24;4.91;;;3.6;;
36833;SDS011;48003;52.084;5.224;2024-02-26T01:52:02;4.8;;;3.6;;
36833;SDS011;48003;52.084;5.224;2024-02-26T01:55:17;5.4;;;3.8;;
36833;SDS011;48003;52.084;5.224;2024-02-26T01:56:54;5.6;;;4.1;;
36833;SDS011;48003;52.084;5.224;2024-02-26T01:58:31;5.11;;;3.7;;
36833;SDS011;48003;52.084;5.224;2024-02-26T02:01:47;6.2;;;4.0;;
36833;SDS011;48003;52.084;5.224;2024-02-26T02:03:31;5.8;;;4.1;;
36833;SDS011;48003;52.084;5.224;2024-02-26T02:05:07;7.3;;;4.1;;
36833;SDS011;48003;52.084;5.224;2024-02-26T02:06:45;5.3;;;3.7;;
36833;SDS011;48003;52.084;5.224;2024-02-26T02:09:59;6.2;;;4.1;;
36833;SDS011;48003;52.084;5.224;2024-02-26T02:11:36;5.7;;;4.0;;
36833;SDS011;48003;52.084;5.224;2024-02-26T02:13:13;5.3;;;4.1;;
36833;SDS011;48003;52.084;5.224;2024-02-26T02:16:25;5.0;;;3.8;;
36833;SDS011;48003;52.084;5.224;2024-02-26T02:18:01;8.2;;;4.2;;
36833;SDS011;48003;52.084;5.224;2024-02-26T02:19:37;5.7;;;3.7;;
36833;SDS011;48003;52.084;5.224;2024-02-26T02:21:14;6.2;;;4.1;;
36833;SDS011;48003;52.084;5.224;2024-02-26T02:24:26;6.2;;;4.1;;
36833;SDS011;48003;52.084;5.224;2024-02-26T02:26:03;6.0;;;4.1;;
36833;SDS011;48003;52.084;5.224;2024-02-26T02:27:39;5.2;;;3.9;;
36833;SDS011;48003;52.084;5.224;2024-02-26T02:30:52;5.9;;;4.2;;
36833;SDS011;48003;52.084;5.224;2024-02-26T02:32:29;6.7;;;4.0;;
36833;SDS011;48003;52.084;5.224;2024-02-26T02:34:07;5.11;;;4.0;;
36833;SDS011;48003;52.084;5.224;2024-02-26T02:37:20;6.1;;;4.3;;
36833;SDS011;48003;52.084;5.224;2024-02-26T02:38:57;5.4;;;4.2;;
36833;SDS011;48003;52.084;5.224;2024-02-26T02:40:34;5.5;;;4.1;;
36833;SDS011;48003;52.084;5.224;2024-02-26T02:42:11;6.4;;;4.3;;
36833;SDS011;48003;52.084;5.224;2024-02-26T02:45:23;7.2;;;4.3;;
36833;SDS011;48003;52.084;5.224;2024-02-26T02:46:59;6.2;;;4.41;;
36833;SDS011;48003;52.084;5.224;2024-02-26T02:48:35;5.4;;;4.1;;
36833;SDS011;48003;52.084;5.224;2024-02-26T02:51:51;6.3;;;4.5;;
36833;SDS011;48003;52.084;5.224;2024-02-26T02:53:28;7.6;;;4.3;;
36833;SDS011;48003;52.084;5.224;2024-02-26T02:55:05;6.4;;;4.41;;
36833;SDS011;48003;52.084;5.224;2024-02-26T02:58:18;8.1;;;4.7;;
36833;SDS011;48003;52.084;5.224;2024-02-26T02:59:54;6.8;;;4.5;;
36833;SDS011;48003;52.084;5.224;2024-02-26T03:01:30;7.6;;;4.61;;
36833;SDS011;48003;52.084;5.224;2024-02-26T03:03:06;6.3;;;4.41;;
36833;SDS011;48003;52.084;5.224;2024-02-26T03:06:18;6.9;;;4.91;;
36833;SDS011;48003;52.084;5.224;2024-02-26T03:07:54;6.6;;;4.8;;
36833;SDS011;48003;52.084;5.224;2024-02-26T03:09:30;5.8;;;4.61;;
36833;SDS011;48003;52.084;5.224;2024-02-26T03:12:43;6.5;;;4.61;;
36833;SDS011;48003;52.084;5.224;2024-02-26T03:14:19;9.0;;;5.0;;
36833;SDS011;48003;52.084;5.224;2024-02-26T03:15:55;6.6;;;4.5;;
36833;SDS011;48003;52.084;5.224;2024-02-26T03:19:07;6.4;;;4.7;;
36833;SDS011;48003;52.084;5.224;2024-02-26T03:20:43;5.7;;;4.3;;
36833;SDS011;48003;52.084;5.224;2024-02-26T03:22:19;7.1;;;4.61;;
36833;SDS011;48003;52.084;5.224;2024-02-26T03:25:31;7.1;;;4.61;;
36833;SDS011;48003;52.084;5.224;2024-02-26T03:27:07;6.3;;;4.5;;
36833;SDS011;48003;52.084;5.224;2024-02-26T03:28:44;9.6;;;5.0;;
36833;SDS011;48003;52.084;5.224;2024-02-26T03:30:21;8.2;;;4.91;;
36833;SDS011;48003;52.084;5.224;2024-02-26T03:33:34;7.9;;;5.2;;
36833;SDS011;48003;52.084;5.224;2024-02-26T03:35:11;7.6;;;5.11;;
36833;SDS011;48003;52.084;5.224;2024-02-26T03:36:47;8.31;;;5.2;;
36833;SDS011;48003;52.084;5.224;2024-02-26T03:40:00;8.0;;;4.61;;
36833;SDS011;48003;52.084;5.224;2024-02-26T03:41:36;6.8;;;4.91;;
36833;SDS011;48003;52.084;5.224;2024-02-26T03:43:13;6.5;;;4.91;;
36833;SDS011;48003;52.084;5.224;2024-02-26T03:46:25;9.4;;;5.5;;
36833;SDS011;48003;52.084;5.224;2024-02-26T03:48:02;8.31;;;5.11;;
36833;SDS011;48003;52.084;5.224;2024-02-26T03:49:38;8.6;;;4.91;;
36833;SDS011;48003;52.084;5.224;2024-02-26T03:51:14;7.2;;;5.2;;
36833;SDS011;48003;52.084;5.224;2024-02-26T03:54:28;8.31;;;5.2;;
36833;SDS011;48003;52.084;5.224;2024-02-26T03:56:04;8.9;;;6.1;;
36833;SDS011;48003;52.084;5.224;2024-02-26T03:57:42;7.1;;;5.3;;
36833;SDS011;48003;52.084;5.224;2024-02-26T04:00:55;9.1;;;5.6;;
36833;SDS011;48003;52.084;5.224;2024-02-26T04:02:32;9.0;;;5.6;;
36833;SDS011;48003;52.084;5.224;2024-02-26T04:04:08;9.31;;;5.9;;
36833;SDS011;48003;52.084;5.224;2024-02-26T04:07:21;12.1;;;6.1;;
36833;SDS011;48003;52.084;5.224;2024-02-26T04:08:57;8.5;;;6.0;;
36833;SDS011;48003;52.084;5.224;2024-02-26T04:10:33;8.0;;;5.8;;
36833;SDS011;48003;52.084;5.224;2024-02-26T04:12:09;9.21;;;6.3;;
36833;SDS011;48003;52.084;5.224;2024-02-26T04:15:22;9.9;;;6.0;;
36833;SDS011;48003;52.084;5.224;2024-02-26T04:16:58;8.5;;;5.9;;
36833;SDS011;48003;52.084;5.224;2024-02-26T04:18:34;9.5;;;6.3;;
36833;SDS011;48003;52.084;5.224;2024-02-26T04:21:52;8.5;;;5.9;;
36833;SDS011;48003;52.084;5.224;2024-02-26T04:23:28;8.6;;;6.2;;
36833;SDS011;48003;52.084;5.224;2024-02-26T04:25:04;9.71;;;6.2;;
36833;SDS011;48003;52.084;5.224;2024-02-26T04:28:17;8.2;;;5.8;;
36833;SDS011;48003;52.084;5.224;2024-02-26T04:29:53;10.1;;;6.2;;
36833;SDS011;48003;52.084;5.224;2024-02-26T04:31:29;9.0;;;6.2;;
36833;SDS011;48003;52.084;5.224;2024-02-26T04:33:06;8.9;;;6.3;;
36833;SDS011;48003;52.084;5.224;2024-02-26T04:36:18;10.6;;;6.7;;
36833;SDS011;48003;52.084;5.224;2024-02-26T04:37:56;9.1;;;6.3;;
36833;SDS011;48003;52.084;5.224;2024-02-26T04:39:32;9.4;;;6.1;;
36833;SDS011;48003;52.084;5.224;2024-02-26T04:42:46;9.0;;;5.9;;
36833;SDS011;48003;52.084;5.224;2024-02-26T04:44:22;7.6;;;5.8;;
36833;SDS011;48003;52.084;5.224;2024-02-26T04:45:59;9.4;;;6.4;;
36833;SDS011;48003;52.084;5.224;2024-02-26T04:49:11;9.31;;;6.2;;
36833;SDS011;48003;52.084;5.224;2024-02-26T04:50:47;9.5;;;6.4;;
36833;SDS011;48003;52.084;5.224;2024-02-26T04:52:23;10.1;;;6.3;;
36833;SDS011;48003;52.084;5.224;2024-02-26T04:53:59;8.9;;;6.2;;
36833;SDS011;48003;52.084;5.224;2024-02-26T04:57:13;9.81;;;6.7;;
36833;SDS011;48003;52.084;5.224;2024-02-26T04:58:49;10.3;;;6.8;;
36833;SDS011;48003;52.084;5.224;2024-02-26T05:00:26;10.5;;;6.5;;
36833;SDS011;48003;52.084;5.224;2024-02-26T05:03:39;10.4;;;6.7;;
36833;SDS011;48003;52.084;5.224;2024-02-26T05:05:15;10.5;;;6.6;;
36833;SDS011;48003;52.084;5.224;2024-02-26T05:06:53;11.2;;;7.3;;
36833;SDS011;48003;52.084;5.224;2024-02-26T05:10:08;9.4;;;7.0;;
36833;SDS011;48003;52.084;5.224;2024-02-26T05:11:45;9.6;;;6.7;;
36833;SDS011;48003;52.084;5.224;2024-02-26T05:13:21;9.6;;;7.3;;
36833;SDS011;48003;52.084;5.224;2024-02-26T05:14:58;10.7;;;7.5;;
36833;SDS011;48003;52.084;5.224;2024-02-26T05:18:11;10.4;;;7.2;;
36833;SDS011;48003;52.084;5.224;2024-02-26T05:19:47;10.1;;;7.1;;
36833;SDS011;48003;52.084;5.224;2024-02-26T05:21:23;11.4;;;7.4;;
36833;SDS011;48003;52.084;5.224;2024-02-26T05:24:37;9.71;;;6.8;;
36833;SDS011;48003;52.084;5.224;2024-02-26T05:26:18;10.0;;;6.7;;
36833;SDS011;48003;52.084;5.224;2024-02-26T05:27:56;11.0;;;7.7;;
36833;SDS011;48003;52.084;5.224;2024-02-26T05:29:33;10.9;;;7.5;;
36833;SDS011;48003;52.084;5.224;2024-02-26T05:32:48;12.4;;;7.7;;
36833;SDS011;48003;52.084;5.224;2024-02-26T05:34:24;9.81;;;7.2;;
36833;SDS011;48003;52.084;5.224;2024-02-26T05:36:00;12.8;;;7.8;;
36833;SDS011;48003;52.084;5.224;2024-02-26T05:39:14;9.71;;;7.1;;
36833;SDS011;48003;52.084;5.224;2024-02-26T05:40:51;10.21;;;7.2;;
36833;SDS011;48003;52.084;5.224;2024-02-26T05:42:27;10.21;;;7.1;;
36833;SDS011;48003;52.084;5.224;2024-02-26T05:45:40;9.6;;;7.2;;
36833;SDS011;48003;52.084;5.224;2024-02-26T05:47:17;12.6;;;7.8;;
36833;SDS011;48003;52.084;5.224;2024-02-26T05:48:53;11.3;;;7.8;;
36833;SDS011;48003;52.084;5.224;2024-02-26T05:50:30;10.21;;;7.5;;
36833;SDS011;48003;52.084;5.224;2024-02-26T05:53:44;12.7;;;7.7;;
36833;SDS011;48003;52.084;5.224;2024-02-26T05:55:22;12.0;;;7.7;;
36833;SDS011;48003;52.084;5.224;2024-02-26T05:56:59;11.0;;;7.6;;
36833;SDS011;48003;52.084;5.224;2024-02-26T06:00:12;11.7;;;8.6;;
36833;SDS011;48003;52.084;5.224;2024-02-26T06:01:49;11.1;;;7.9;;
36833;SDS011;48003;52.084;5.224;2024-02-26T06:03:25;12.4;;;8.5;;
36833;SDS011;48003;52.084;5.224;2024-02-26T06:06:39;11.7;;;8.0;;
36833;SDS011;48003;52.084;5.224;2024-02-26T06:08:16;11.7;;;8.1;;
36833;SDS011;48003;52.084;5.224;2024-02-26T06:09:53;11.1;;;8.1;;
36833;SDS011;48003;52.084;5.224;2024-02-26T06:11:31;14.5;;;8.1;;
36833;SDS011;48003;52.084;5.224;2024-02-26T06:14:45;13.6;;;8.9;;
36833;SDS011;48003;52.084;5.224;2024-02-26T06:16:21;12.5;;;8.4;;
36833;SDS011;48003;52.084;5.224;2024-02-26T06:17:59;12.7;;;9.0;;
36833;SDS011;48003;52.084;5.224;2024-02-26T06:21:13;13.1;;;8.9;;
36833;SDS011;48003;52.084;5.224;2024-02-26T06:22:50;11.8;;;8.71;;
36833;SDS011;48003;52.084;5.224;2024-02-26T06:24:27;12.4;;;8.71;;
36833;SDS011;48003;52.084;5.224;2024-02-26T06:26:05;13.4;;;8.4;;
36833;SDS011;48003;52.084;5.224;2024-02-26T06:29:18;11.8;;;8.4;;
36833;SDS011;48003;52.084;5.224;2024-02-26T06:30:55;15.5;;;9.0;;
36833;SDS011;48003;52.084;5.224;2024-02-26T06:32:32;13.5;;;9.31;;
36833;SDS011;48003;52.084;5.224;2024-02-26T06:35:47;13.6;;;9.0;;
36833;SDS011;48003;52.084;5.224;2024-02-26T06:37:24;15.1;;;9.4;;
36833;SDS011;48003;52.084;5.224;2024-02-26T06:39:01;13.7;;;8.9;;
36833;SDS011;48003;52.084;5.224;2024-02-26T06:40:38;13.4;;;9.21;;
36833;SDS011;48003;52.084;5.224;2024-02-26T06:43:51;15.2;;;9.0;;
36833;SDS011;48003;52.084;5.224;2024-02-26T06:45:28;15.2;;;9.0;;
36833;SDS011;48003;52.084;5.224;2024-02-26T06:47:04;15.6;;;9.6;;
36833;SDS011;48003;52.084;5.224;2024-02-26T06:50:17;15.6;;;9.71;;
36833;SDS011;48003;52.084;5.224;2024-02-26T06:51:54;16.11;;;9.9;;
36833;SDS011;48003;52.084;5.224;2024-02-26T06:53:31;15.9;;;10.0;;
36833;SDS011;48003;52.084;5.224;2024-02-26T06:56:45;19.2;;;10.8;;
36833;SDS011;48003;52.084;5.224;2024-02-26T06:58:22;16.3;;;10.5;;
36833;SDS011;48003;52.084;5.224;2024-02-26T06:59:59;17.0;;;10.3;;
36833;SDS011;48003;52.084;5.224;2024-02-26T07:01:36;16.9;;;10.4;;
36833;SDS011;48003;52.084;5.224;2024-02-26T07:04:50;17.8;;;11.1;;
36833;SDS011;48003;52.084;5.224;2024-02-26T07:06:27;19.41;;;11.2;;
36833;SDS011;48003;52.084;5.224;2024-02-26T07:08:05;19.0;;;10.8;;
36833;SDS011;48003;52.084;5.224;2024-02-26T07:11:19;20.6;;;13.1;;
36833;SDS011;48003;52.084;5.224;2024-02-26T07:12:56;23.5;;;13.8;;
36833;SDS011;48003;52.084;5.224;2024-02-26T07:14:32;23.1;;;13.8;;
36833;SDS011;48003;52.084;5.224;2024-02-26T07:16:14;23.5;;;14.3;;
36833;SDS011;48003;52.084;5.224;2024-02-26T07:19:35;24.5;;;14.8;;
36833;SDS011;48003;52.084;5.224;2024-02-26T07:21:12;25.2;;;15.2;;
36833;SDS011;48003;52.084;5.224;2024-02-26T07:22:48;27.6;;;16.2;;
36833;SDS011;48003;52.084;5.224;2024-02-26T07:26:06;26.5;;;15.2;;
36833;SDS011;48003;52.084;5.224;2024-02-26T07:27:42;27.7;;;15.9;;
36833;SDS011;48003;52.084;5.224;2024-02-26T07:29:19;27.3;;;16.4;;
36833;SDS011;48003;52.084;5.224;2024-02-26T07:30:55;27.2;;;16.5;;
36833;SDS011;48003;52.084;5.224;2024-02-26T07:34:10;28.6;;;17.41;;
36833;SDS011;48003;52.084;5.224;2024-02-26T07:35:47;30.7;;;17.7;;
36833;SDS011;48003;52.084;5.224;2024-02-26T07:37:24;29.7;;;18.0;;
36833;SDS011;48003;52.084;5.224;2024-02-26T07:40:38;30.9;;;18.11;;
36833;SDS011;48003;52.084;5.224;2024-02-26T07:42:15;30.1;;;18.2;;
36833;SDS011;48003;52.084;5.224;2024-02-26T07:43:52;29.3;;;18.0;;
36833;SDS011;48003;52.084;5.224;2024-02-26T07:45:29;33.5;;;20.0;;
36833;SDS011;48003;52.084;5.224;2024-02-26T07:48:41;30.4;;;18.8;;
36833;SDS011;48003;52.084;5.224;2024-02-26T07:50:18;32.4;;;19.2;;
36833;SDS011;48003;52.084;5.224;2024-02-26T07:51:54;29.6;;;18.5;;
36833;SDS011;48003;52.084;5.224;2024-02-26T07:55:09;30.8;;;18.61;;
36833;SDS011;48003;52.084;5.224;2024-02-26T07:56:46;31.0;;;19.2;;
36833;SDS011;48003;52.084;5.224;2024-02-26T07:58:23;30.1;;;18.0;;
36833;SDS011;48003;52.084;5.224;2024-02-26T08:01:37;29.6;;;18.7;;
36833;SDS011;48003;52.084;5.224;2024-02-26T08:03:13;31.7;;;18.61;;
36833;SDS011;48003;52.084;5.224;2024-02-26T08:04:50;33.0;;;19.11;;
36833;SDS011;48003;52.084;5.224;2024-02-26T08:06:27;28.3;;;17.5;;
36833;SDS011;48003;52.084;5.224;2024-02-26T08:09:41;30.8;;;18.41;;
36833;SDS011;48003;52.084;5.224;2024-02-26T08:11:18;28.8;;;18.0;;
36833;SDS011;48003;52.084;5.224;2024-02-26T08:12:55;27.1;;;17.61;;
36833;SDS011;48003;52.084;5.224;2024-02-26T08:16:08;27.2;;;17.11;;
36833;SDS011;48003;52.084;5.224;2024-02-26T08:17:45;26.8;;;17.61;;
36833;SDS011;48003;52.084;5.224;2024-02-26T08:19:22;24.0;;;15.4;;
36833;SDS011;48003;52.084;5.224;2024-02-26T08:22:37;23.1;;;14.7;;
36833;SDS011;48003;52.084;5.224;2024-02-26T08:24:14;23.6;;;15.5;;
36833;SDS011;48003;52.084;5.224;2024-02-26T08:25:51;21.1;;;14.1;;
36833;SDS011;48003;52.084;5.224;2024-02-26T08:27:28;19.3;;;13.4;;
36833;SDS011;48003;52.084;5.224;2024-02-26T08:30:41;20.11;;;13.4;;
36833;SDS011;48003;52.084;5.224;2024-02-26T08:32:18;19.3;;;13.3;;
36833;SDS011;48003;52.084;5.224;2024-02-26T08:33:55;18.61;;;12.1;;
36833;SDS011;48003;52.084;5.224;2024-02-26T08:37:08;19.41;;;11.7;;
36833;SDS011;48003;52.084;5.224;2024-02-26T08:38:44;17.61;;;11.5;;
36833;SDS011;48003;52.084;5.224;2024-02-26T08:40:21;18.11;;;11.3;;
36833;SDS011;48003;52.084;5.224;2024-02-26T08:41:58;17.61;;;11.4;;
36833;SDS011;48003;52.084;5.224;2024-02-26T08:45:11;15.2;;;10.3;;
36833;SDS011;48003;52.084;5.224;2024-02-26T08:46:49;16.2;;;10.3;;
36833;SDS011;48003;52.084;5.224;2024-02-26T08:48:25;14.2;;;10.1;;
36833;SDS011;48003;52.084;5.224;2024-02-26T08:51:41;15.8;;;10.1;;
36833;SDS011;48003;52.084;5.224;2024-02-26T08:53:18;14.1;;;10.0;;
36833;SDS011;48003;52.084;5.224;2024-02-26T08:54:55;14.1;;;10.0;;
36833;SDS011;48003;52.084;5.224;2024-02-26T08:58:09;14.4;;;8.9;;
36833;SDS011;48003;52.084;5.224;2024-02-26T08:59:47;13.0;;;9.31;;
36833;SDS011;48003;52.084;5.224;2024-02-26T09:01:24;13.1;;;9.1;;
36833;SDS011;48003;52.084;5.224;2024-02-26T09:03:01;13.7;;;9.21;;
36833;SDS011;48003;52.084;5.224;2024-02-26T09:06:14;14.8;;;8.81;;
36833;SDS011;48003;52.084;5.224;2024-02-26T09:07:51;15.0;;;9.31;;
36833;SDS011;48003;52.084;5.224;2024-02-26T09:09:28;13.1;;;9.0;;
36833;SDS011;48003;52.084;5.224;2024-02-26T09:12:41;13.8;;;9.1;;
36833;SDS011;48003;52.084;5.224;2024-02-26T09:14:18;15.2;;;8.31;;
36833;SDS011;48003;52.084;5.224;2024-02-26T09:15:55;13.5;;;8.31;;
36833;SDS011;48003;52.084;5.224;2024-02-26T09:17:32;12.2;;;8.0;;
36833;SDS011;48003;52.084;5.224;2024-02-26T09:20:47;15.0;;;7.9;;
36833;SDS011;48003;52.084;5.224;2024-02-26T09:22:24;12.6;;;7.9;;
36833;SDS011;48003;52.084;5.224;2024-02-26T09:24:01;11.3;;;7.5;;
36833;SDS011;48003;52.084;5.224;2024-02-26T09:27:15;11.3;;;7.7;;
36833;SDS011;48003;52.084;5.224;2024-02-26T09:28:52;10.5;;;7.6;;
36833;SDS011;48003;52.084;5.224;2024-02-26T09:30:29;11.6;;;7.8;;
36833;SDS011;48003;52.084;5.224;2024-02-26T09:33:44;12.4;;;7.6;;
36833;SDS011;48003;52.084;5.224;2024-02-26T09:35:21;11.9;;;7.7;;
36833;SDS011;48003;52.084;5.224;2024-02-26T09:36:58;10.8;;;6.6;;
36833;SDS011;48003;52.084;5.224;2024-02-26T09:38:35;13.5;;;7.2;;
36833;SDS011;48003;52.084;5.224;2024-02-26T09:41:48;9.21;;;6.5;;
36833;SDS011;48003;52.084;5.224;2024-02-26T09:43:25;10.0;;;6.9;;
36833;SDS011;48003;52.084;5.224;2024-02-26T09:45:10;10.6;;;6.8;;
36833;SDS011;48003;52.084;5.224;2024-02-26T09:46:53;10.21;;;6.8;;
36833;SDS011;48003;52.084;5.224;2024-02-26T09:50:09;10.7;;;6.5;;
36833;SDS011;48003;52.084;5.224;2024-02-26T09:51:46;10.5;;;6.4;;
36833;SDS011;48003;52.084;5.224;2024-02-26T09:53:25;10.4;;;6.6;;
36833;SDS011;48003;52.084;5.224;2024-02-26T09:56:44;9.21;;;6.1;;
36833;SDS011;48003;52.084;5.224;2024-02-26T09:58:28;9.1;;;5.8;;
36833;SDS011;48003;52.084;5.224;2024-02-26T10:00:08;10.0;;;6.7;;
36833;SDS011;48003;52.084;5.224;2024-02-26T10:01:51;9.1;;;6.1;;
36833;SDS011;48003;52.084;5.224;2024-02-26T10:05:14;9.71;;;6.3;;
36833;SDS011;48003;52.084;5.224;2024-02-26T10:06:53;8.81;;;6.2;;
36833;SDS011;48003;52.084;5.224;2024-02-26T10:08:30;9.1;;;6.2;;
36833;SDS011;48003;52.084;5.224;2024-02-26T10:10:09;11.2;;;7.0;;
36833;SDS011;48003;52.084;5.224;2024-02-26T10:13:25;10.21;;;6.1;;
36833;SDS011;48003;52.084;5.224;2024-02-26T10:15:01;8.71;;;6.0;;
36833;SDS011;48003;52.084;5.224;2024-02-26T10:16:38;10.6;;;6.6;;
36833;SDS011;48003;52.084;5.224;2024-02-26T10:18:15;9.71;;;6.1;;
36833;SDS011;48003;52.084;5.224;2024-02-26T10:21:29;9.71;;;6.1;;
36833;SDS011;48003;52.084;5.224;2024-02-26T10:23:06;11.0;;;6.9;;
36833;SDS011;48003;52.084;5.224;2024-02-26T10:24:43;9.4;;;6.2;;
36833;SDS011;48003;52.084;5.224;2024-02-26T10:28:00;9.6;;;6.2;;
36833;SDS011;48003;52.084;5.224;2024-02-26T10:29:38;11.1;;;6.2;;
36833;SDS011;48003;52.084;5.224;2024-02-26T10:31:15;9.1;;;5.8;;
36833;SDS011;48003;52.084;5.224;2024-02-26T10:32:52;9.4;;;6.0;;
36833;SDS011;48003;52.084;5.224;2024-02-26T10:36:07;9.9;;;6.1;;
36833;SDS011;48003;52.084;5.224;2024-02-26T10:37:45;10.7;;;6.0;;
36833;SDS011;48003;52.084;5.224;2024-02-26T10:39:25;9.5;;;6.2;;
36833;SDS011;48003;52.084;5.224;2024-02-26T10:42:39;11.2;;;6.5;;
36833;SDS011;48003;52.084;5.224;2024-02-26T10:44:17;8.81;;;5.9;;
36833;SDS011;48003;52.084;5.224;2024-02-26T10:45:54;10.21;;;7.0;;
36833;SDS011;48003;52.084;5.224;2024-02-26T10:47:31;9.31;;;6.1;;
36833;SDS011;48003;52.084;5.224;2024-02-26T10:50:53;9.31;;;6.1;;
36833;SDS011;48003;52.084;5.224;2024-02-26T10:52:31;9.4;;;6.2;;
36833;SDS011;48003;52.084;5.224;2024-02-26T10:54:09;8.81;;;5.8;;
36833;SDS011;48003;52.084;5.224;2024-02-26T10:55:52;9.4;;;6.3;;
36833;SDS011;48003;52.084;5.224;2024-02-26T10:59:12;10.9;;;5.8;;
36833;SDS011;48003;52.084;5.224;2024-02-26T11:00:50;9.0;;;6.1;;
36833;SDS011;48003;52.084;5.224;2024-02-26T11:02:28;10.0;;;6.3;;
36833;SDS011;48003;52.084;5.224;2024-02-26T11:05:46;11.0;;;6.1;;
36833;SDS011;48003;52.084;5.224;2024-02-26T11:07:24;9.9;;;6.3;;
36833;SDS011;48003;52.084;5.224;2024-02-26T11:09:03;9.0;;;5.8;;
36833;SDS011;48003;52.084;5.224;2024-02-26T11:10:42;8.71;;;6.1;;
36833;SDS011;48003;52.084;5.224;2024-02-26T11:14:02;8.5;;;5.8;;
36833;SDS011;48003;52.084;5.224;2024-02-26T11:15:39;9.0;;;5.7;;
36833;SDS011;48003;52.084;5.224;2024-02-26T11:17:17;8.4;;;5.6;;
36833;SDS011;48003;52.084;5.224;2024-02-26T11:18:57;9.0;;;5.7;;
36833;SDS011;48003;52.084;5.224;2024-02-26T11:22:14;10.5;;;6.3;;
36833;SDS011;48003;52.084;5.224;2024-02-26T11:23:51;9.6;;;5.9;;
36833;SDS011;48003;52.084;5.224;2024-02-26T11:25:28;8.31;;;5.8;;
36833;SDS011;48003;52.084;5.224;2024-02-26T11:28:44;7.9;;;5.8;;
36833;SDS011;48003;52.084;5.224;2024-02-26T11:32:00;9.0;;;5.8;;
36833;SDS011;48003;52.084;5.224;2024-02-26T11:33:37;9.21;;;6.0;;
36833;SDS011;48003;52.084;5.224;2024-02-26T11:36:52;8.1;;;5.8;;
36833;SDS011;48003;52.084;5.224;2024-02-26T11:38:31;9.9;;;6.3;;
36833;SDS011;48003;52.084;5.224;2024-02-26T11:40:10;9.4;;;5.9;;
36833;SDS011;48003;52.084;5.224;2024-02-26T11:43:49;8.4;;;5.5;;
36833;SDS011;48003;52.084;5.224;2024-02-26T11:47:40;8.9;;;5.9;;
36833;SDS011;48003;52.084;5.224;2024-02-26T11:49:36;9.21;;;5.9;;
36833;SDS011;48003;52.084;5.224;2024-02-26T11:51:12;9.1;;;5.9;;
36833;SDS011;48003;52.084;5.224;2024-02-26T11:53:19;7.6;;;5.9;;
36833;SDS011;48003;52.084;5.224;2024-02-26T11:54:56;9.5;;;6.3;;
36833;SDS011;48003;52.084;5.224;2024-02-26T11:56:34;9.1;;;6.1;;
36833;SDS011;48003;52.084;5.224;2024-02-26T11:59:48;7.8;;;5.6;;
36833;SDS011;48003;52.084;5.224;2024-02-26T12:01:37;10.0;;;6.4;;
36833;SDS011;48003;52.084;5.224;2024-02-26T12:03:16;9.71;;;6.0;;
36833;SDS011;48003;52.084;5.224;2024-02-26T12:04:53;7.9;;;5.8;;
36833;SDS011;48003;52.084;5.224;2024-02-26T12:08:07;10.21;;;6.0;;
36833;SDS011;48003;52.084;5.224;2024-02-26T12:09:44;8.31;;;5.5;;
36833;SDS011;48003;52.084;5.224;2024-02-26T12:11:21;8.71;;;5.9;;
36833;SDS011;48003;52.084;5.224;2024-02-26T12:14:37;9.31;;;6.1;;
36833;SDS011;48003;52.084;5.224;2024-02-26T12:16:24;8.2;;;5.6;;
36833;SDS011;48003;52.084;5.224;2024-02-26T12:18:15;8.0;;;6.0;;
36833;SDS011;48003;52.084;5.224;2024-02-26T12:19:55;10.8;;;6.2;;
36833;SDS011;48003;52.084;5.224;2024-02-26T12:21:44;9.9;;;5.7;;
36833;SDS011;48003;52.084;5.224;2024-02-26T12:24:58;9.4;;;5.8;;
36833;SDS011;48003;52.084;5.224;2024-02-26T12:26:36;8.31;;;5.7;;
36833;SDS011;48003;52.084;5.224;2024-02-26T12:28:13;7.7;;;5.7;;
36833;SDS011;48003;52.084;5.224;2024-02-26T12:31:29;9.4;;;6.1;;
36833;SDS011;48003;52.084;5.224;2024-02-26T12:33:07;9.31;;;6.0;;
36833;SDS011;48003;52.084;5.224;2024-02-26T12:34:44;9.1;;;5.9;;
36833;SDS011;48003;52.084;5.224;2024-02-26T12:36:21;8.81;;;5.9;;
36833;SDS011;48003;52.084;5.224;2024-02-26T12:39:36;9.21;;;6.2;;
36833;SDS011;48003;52.084;5.224;2024-02-26T12:41:14;8.31;;;5.7;;
36833;SDS011;48003;52.084;5.224;2024-02-26T12:42:52;8.2;;;5.4;;
36833;SDS011;48003;52.084;5.224;2024-02-26T12:46:08;8.71;;;5.4;;
36833;SDS011;48003;52.084;5.224;2024-02-26T12:47:45;8.1;;;5.4;;
36833;SDS011;48003;52.084;5.224;2024-02-26T12:49:22;8.0;;;5.8;;
36833;SDS011;48003;52.084;5.224;2024-02-26T12:50:59;9.6;;;6.1;;
36833;SDS011;48003;52.084;5.224;2024-02-26T12:54:21;9.4;;;5.8;;